Time,TemperatureF,DewpointF,PressureIn,WindDirection,WindDirectionDegrees,WindSpeedMPH,WindSpeedGustMPH,Humidity,HourlyPrecipIn,Conditions,Clouds,dailyrainin,SolarRadiationWatts/m^2,SoftwareType,DateUTC
2013-06-26 00:02:00,72.4,69.0,29.67,SW,223,0.0,0.0,89,0.00,,SCT022,0.00,0.00,VWS V14.01,2013-06-26 05:02:00,
2013-06-26 00:07:00,72.3,68.9,29.67,SW,223,1.0,1.0,89,0.00,,SCT022,0.00,0.00,VWS V14.01,2013-06-26 05:07:00,
2013-06-26 00:12:00,72.3,68.9,29.67,SW,223,0.0,1.0,89,0.00,,SCT022,0.00,0.00,VWS V14.01,2013-06-26 05:12:00,
2013-06-26 00:17:00,72.4,69.0,29.67,SW,223,0.0,1.0,89,0.00,,SCT022,0.00,0.00,VWS V14.01,2013-06-26 05:17:00,
2013-06-26 00:22:00,72.5,69.1,29.67,South,186,0.0,1.0,89,0.00,,SCT022,0.00,0.00,VWS V14.01,2013-06-26 05:22:00,
2013-06-26 00:27:00,72.6,69.2,29.67,South,186,0.0,1.0,89,0.00,,SCT022,0.00,0.00,VWS V14.01,2013-06-26 05:27:00,
2013-06-26 00:32:00,72.6,69.2,29.67,South,186,0.0,0.0,89,0.00,,SCT022,0.00,0.00,VWS V14.01,2013-06-26 05:32:00,
2013-06-26 00:37:00,72.5,69.1,29.67,South,186,0.0,1.0,89,0.00,,SCT022,0.00,0.00,VWS V14.01,2013-06-26 05:37:00,
2013-06-26 00:42:00,72.5,69.1,29.67,South,186,0.0,1.0,89,0.00,,SCT022,0.00,0.00,VWS V14.01,2013-06-26 05:42:00,
2013-06-26 00:47:00,72.5,69.1,29.67,South,186,0.0,1.0,89,0.00,,SCT022,0.00,0.00,VWS V14.01,2013-06-26 05:47:00,
2013-06-26 00:52:00,72.4,69.0,29.67,South,186,0.0,1.0,89,0.00,,SCT022,0.00,0.00,VWS V14.01,2013-06-26 05:52:00,
2013-06-26 00:57:00,72.4,69.0,29.67,ESE,116,0.0,1.0,89,0.00,,SCT022,0.00,0.00,VWS V14.01,2013-06-26 05:57:00,
2013-06-26 01:02:00,72.6,69.2,29.67,ESE,116,0.0,1.0,89,0.00,,BKN028,0.00,0.00,VWS V14.01,2013-06-26 06:02:00,
2013-06-26 01:07:00,72.7,69.6,29.67,SSE,148,0.0,1.0,90,0.00,,BKN028,0.00,0.00,VWS V14.01,2013-06-26 06:07:00,
2013-06-26 01:12:00,72.8,69.4,29.67,SSE,148,1.0,1.0,89,0.00,,BKN028,0.00,0.00,VWS V14.01,2013-06-26 06:12:00,
2013-06-26 01:17:00,72.9,69.5,29.66,SSE,148,0.0,1.0,89,0.00,,BKN028,0.00,0.00,VWS V14.01,2013-06-26 06:17:00,
2013-06-26 01:22:00,72.9,69.5,29.66,SSE,148,0.0,1.0,89,0.00,,SCT028,0.00,0.00,VWS V14.01,2013-06-26 06:22:00,
2013-06-26 01:27:00,72.9,69.5,29.66,SSE,148,0.0,2.0,89,0.00,,SCT028,0.00,0.00,VWS V14.01,2013-06-26 06:27:00,
2013-06-26 01:32:00,72.8,69.4,29.65,SSE,148,0.0,1.0,89,0.00,,SCT028,0.00,0.00,VWS V14.01,2013-06-26 06:32:00,
2013-06-26 01:37:00,72.8,69.4,29.65,SSE,147,0.0,2.0,89,0.00,,SCT028,0.00,0.00,VWS V14.01,2013-06-26 06:37:00,
2013-06-26 01:42:00,72.7,69.3,29.65,ESE,113,1.0,2.0,89,0.00,,SCT028,0.00,0.00,VWS V14.01,2013-06-26 06:42:00,
2013-06-26 01:47:00,72.6,69.5,29.65,ENE,63,0.0,2.0,90,0.00,,SCT028,0.00,0.00,VWS V14.01,2013-06-26 06:47:00,
2013-06-26 01:52:00,72.5,69.1,29.65,ENE,63,0.0,2.0,89,0.00,,SCT028,0.00,0.00,VWS V14.01,2013-06-26 06:52:00,
2013-06-26 01:57:00,72.4,69.3,29.65,ENE,65,0.0,2.0,90,0.00,,SCT028,0.00,0.00,VWS V14.01,2013-06-26 06:57:00,
2013-06-26 02:02:00,72.2,69.1,29.64,ENE,65,0.0,1.0,90,0.00,,CLR,0.00,0.00,VWS V14.01,2013-06-26 07:02:00,
2013-06-26 02:07:00,72.1,69.0,29.64,ENE,65,0.0,1.0,90,0.00,,CLR,0.00,0.00,VWS V14.01,2013-06-26 07:07:00,
2013-06-26 02:13:00,71.9,68.8,29.64,ENE,65,0.0,1.0,90,0.00,,CLR,0.00,0.00,VWS V14.01,2013-06-26 07:13:00,
2013-06-26 02:18:00,71.8,68.7,29.64,ENE,65,0.0,1.0,90,0.00,,CLR,0.00,0.00,VWS V14.01,2013-06-26 07:18:00,
2013-06-26 02:23:00,71.7,68.6,29.64,ENE,65,0.0,1.0,90,0.00,,CLR,0.00,0.00,VWS V14.01,2013-06-26 07:23:00,
2013-06-26 02:28:00,71.7,68.6,29.64,ENE,65,0.0,1.0,90,0.00,,CLR,0.00,0.00,VWS V14.01,2013-06-26 07:28:00,
2013-06-26 02:33:00,71.6,68.5,29.64,ENE,65,0.0,1.0,90,0.00,,CLR,0.00,0.00,VWS V14.01,2013-06-26 07:33:00,
2013-06-26 02:38:00,71.5,68.4,29.64,ENE,65,0.0,1.0,90,0.00,,CLR,0.00,0.00,VWS V14.01,2013-06-26 07:38:00,
2013-06-26 02:43:00,71.5,68.4,29.63,ENE,65,0.0,1.0,90,0.00,,CLR,0.00,0.00,VWS V14.01,2013-06-26 07:43:00,
2013-06-26 02:48:00,71.3,68.2,29.64,ENE,65,0.0,1.0,90,0.00,,CLR,0.00,0.00,VWS V14.01,2013-06-26 07:48:00,
2013-06-26 02:53:00,71.2,68.1,29.64,ENE,65,0.0,1.0,90,0.00,,CLR,0.00,0.00,VWS V14.01,2013-06-26 07:53:00,
2013-06-26 02:58:00,71.1,68.0,29.64,ENE,65,0.0,1.0,90,0.00,,CLR,0.00,0.00,VWS V14.01,2013-06-26 07:58:00,
2013-06-26 03:03:00,71.1,67.7,29.64,ENE,65,0.0,0.0,89,0.00,,CLR,0.00,0.00,VWS V14.01,2013-06-26 08:03:00,
2013-06-26 03:08:00,71.0,67.6,29.63,ENE,65,0.0,1.0,89,0.00,,CLR,0.00,0.00,VWS V14.01,2013-06-26 08:08:00,
2013-06-26 03:13:00,70.8,67.4,29.63,ENE,65,1.0,2.0,89,0.00,,CLR,0.00,0.00,VWS V14.01,2013-06-26 08:13:00,
2013-06-26 03:18:00,70.8,67.4,29.63,ENE,66,0.0,2.0,89,0.00,,CLR,0.00,0.00,VWS V14.01,2013-06-26 08:18:00,
2013-06-26 03:23:00,70.8,67.4,29.63,ENE,66,0.0,2.0,89,0.00,,CLR,0.00,0.00,VWS V14.01,2013-06-26 08:23:00,
2013-06-26 03:28:00,70.8,67.4,29.64,ENE,66,0.0,2.0,89,0.00,,CLR,0.00,0.00,VWS V14.01,2013-06-26 08:28:00,
2013-06-26 03:33:00,70.7,67.3,29.63,ENE,66,0.0,1.0,89,0.00,,CLR,0.00,0.00,VWS V14.01,2013-06-26 08:33:00,
2013-06-26 03:38:00,70.7,67.3,29.63,ENE,66,0.0,1.0,89,0.00,,CLR,0.00,0.00,VWS V14.01,2013-06-26 08:38:00,
2013-06-26 03:43:00,70.6,67.2,29.63,ENE,66,0.0,1.0,89,0.00,,CLR,0.00,0.00,VWS V14.01,2013-06-26 08:43:00,
2013-06-26 03:48:00,70.6,67.2,29.64,ENE,66,0.0,1.0,89,0.00,,CLR,0.00,0.00,VWS V14.01,2013-06-26 08:48:00,
2013-06-26 03:53:00,70.6,67.2,29.64,ENE,66,0.0,1.0,89,0.00,,CLR,0.00,0.00,VWS V14.01,2013-06-26 08:53:00,
2013-06-26 03:58:00,70.6,67.2,29.64,ENE,66,0.0,1.0,89,0.00,,CLR,0.00,0.00,VWS V14.01,2013-06-26 08:58:00,
2013-06-26 04:03:00,70.6,67.2,29.64,ENE,66,0.0,0.0,89,0.00,,,0.00,0.00,VWS V14.01,2013-06-26 09:03:00,
2013-06-26 04:08:00,70.6,67.2,29.64,ENE,66,0.0,1.0,89,0.00,,,0.00,0.00,VWS V14.01,2013-06-26 09:08:00,
2013-06-26 04:13:00,70.7,67.0,29.63,ENE,68,0.0,1.0,88,0.00,,,0.00,0.00,VWS V14.01,2013-06-26 09:13:00,
2013-06-26 04:18:00,70.7,67.0,29.63,ENE,60,0.0,2.0,88,0.00,,,0.00,0.00,VWS V14.01,2013-06-26 09:18:00,
2013-06-26 04:23:00,70.7,67.0,29.64,ENE,60,0.0,2.0,88,0.00,,,0.00,0.00,VWS V14.01,2013-06-26 09:23:00,
2013-06-26 04:28:00,70.8,67.1,29.64,ENE,60,0.0,2.0,88,0.00,,,0.00,0.00,VWS V14.01,2013-06-26 09:28:00,
2013-06-26 04:33:00,70.8,67.1,29.64,ENE,60,0.0,1.0,88,0.00,,,0.00,0.00,VWS V14.01,2013-06-26 09:33:00,
2013-06-26 04:38:00,70.8,67.1,29.64,ENE,60,0.0,1.0,88,0.00,,,0.00,0.00,VWS V14.01,2013-06-26 09:38:00,
2013-06-26 04:43:00,70.9,67.2,29.65,ENE,60,0.0,1.0,88,0.00,,,0.00,0.00,VWS V14.01,2013-06-26 09:43:00,
2013-06-26 04:48:00,70.8,67.1,29.65,ENE,60,0.0,1.0,88,0.00,,,0.00,0.00,VWS V14.01,2013-06-26 09:48:00,
2013-06-26 04:53:00,70.8,67.1,29.65,ENE,60,0.0,1.0,88,0.00,,,0.00,0.00,VWS V14.01,2013-06-26 09:53:00,
2013-06-26 04:58:00,70.9,67.2,29.64,ENE,60,0.0,1.0,88,0.00,,,0.00,0.00,VWS V14.01,2013-06-26 09:58:00,
2013-06-26 05:03:00,71.0,67.3,29.64,ENE,60,0.0,0.0,88,0.00,,,0.00,0.00,VWS V14.01,2013-06-26 10:03:00,
2013-06-26 05:08:00,70.9,67.2,29.64,ENE,60,0.0,0.0,88,0.00,,,0.00,0.00,VWS V14.01,2013-06-26 10:08:00,
2013-06-26 05:13:00,70.9,67.2,29.64,ENE,60,0.0,0.0,88,0.00,,,0.00,0.00,VWS V14.01,2013-06-26 10:13:00,
2013-06-26 05:18:00,70.8,67.1,29.64,ENE,60,0.0,0.0,88,0.00,,,0.00,0.00,VWS V14.01,2013-06-26 10:18:00,
2013-06-26 05:23:00,70.8,67.1,29.64,ENE,60,0.0,0.0,88,0.00,,,0.00,0.00,VWS V14.01,2013-06-26 10:23:00,
2013-06-26 05:28:00,70.8,67.1,29.64,ENE,60,0.0,0.0,88,0.00,,,0.00,0.00,VWS V14.01,2013-06-26 10:28:00,
2013-06-26 05:33:00,70.8,67.1,29.64,ENE,60,0.0,0.0,88,0.00,,,0.00,0.00,VWS V14.01,2013-06-26 10:33:00,
2013-06-26 05:38:00,70.9,67.2,29.64,ENE,60,0.0,0.0,88,0.00,,,0.00,0.00,VWS V14.01,2013-06-26 10:38:00,
2013-06-26 05:43:00,71.0,67.3,29.63,ENE,60,0.0,0.0,88,0.00,,,0.00,7.00,VWS V14.01,2013-06-26 10:43:00,
2013-06-26 05:48:00,71.1,67.0,29.63,ENE,60,0.0,0.0,87,0.00,,,0.00,11.00,VWS V14.01,2013-06-26 10:48:00,
2013-06-26 05:53:00,71.2,67.1,29.63,ENE,60,0.0,0.0,87,0.00,,,0.00,12.00,VWS V14.01,2013-06-26 10:53:00,
2013-06-26 05:58:00,71.2,67.5,29.63,ENE,60,0.0,0.0,88,0.00,,,0.00,14.00,VWS V14.01,2013-06-26 10:58:00,
2013-06-26 06:03:00,71.1,67.4,29.63,ENE,60,0.0,0.0,88,0.00,,,0.00,21.00,VWS V14.01,2013-06-26 11:03:00,
2013-06-26 06:08:00,71.1,67.4,29.63,ENE,60,1.0,1.0,88,0.00,,,0.00,23.00,VWS V14.01,2013-06-26 11:08:00,
2013-06-26 06:13:00,71.2,67.5,29.63,ENE,60,0.0,1.0,88,0.00,,,0.00,28.00,VWS V14.01,2013-06-26 11:13:00,
2013-06-26 06:18:00,71.2,67.1,29.62,ENE,60,0.0,1.0,87,0.00,,,0.00,33.00,VWS V14.01,2013-06-26 11:18:00,
2013-06-26 06:23:00,71.3,67.2,29.62,ENE,60,0.0,1.0,87,0.00,,,0.00,35.00,VWS V14.01,2013-06-26 11:23:00,
2013-06-26 06:28:00,71.4,67.3,29.61,ENE,60,0.0,1.0,87,0.00,,,0.00,47.00,VWS V14.01,2013-06-26 11:28:00,
2013-06-26 06:33:00,71.5,67.4,29.61,ENE,60,0.0,1.0,87,0.00,,,0.00,47.00,VWS V14.01,2013-06-26 11:33:00,
2013-06-26 06:38:00,71.5,67.4,29.61,WNW,294,1.0,1.0,87,0.00,,,0.00,47.00,VWS V14.01,2013-06-26 11:38:00,
2013-06-26 06:43:00,71.5,67.4,29.61,North,5,0.0,1.0,87,0.00,,,0.00,53.00,VWS V14.01,2013-06-26 11:43:00,
2013-06-26 06:48:00,71.6,67.5,29.61,North,5,0.0,1.0,87,0.00,,,0.00,56.00,VWS V14.01,2013-06-26 11:48:00,
2013-06-26 06:53:00,71.6,67.5,29.61,North,5,0.0,1.0,87,0.00,,,0.00,69.00,VWS V14.01,2013-06-26 11:53:00,
2013-06-26 06:58:00,71.7,67.6,29.62,North,5,0.0,1.0,87,0.00,,,0.00,63.00,VWS V14.01,2013-06-26 11:58:00,
2013-06-26 07:03:00,71.7,67.6,29.62,ENE,62,0.0,2.0,87,0.00,,,0.00,69.00,VWS V14.01,2013-06-26 12:03:00,
2013-06-26 07:08:00,71.8,67.7,29.62,ESE,107,1.0,2.0,87,0.00,,,0.00,72.00,VWS V14.01,2013-06-26 12:08:00,
2013-06-26 07:13:00,71.9,67.8,29.63,NE,55,0.0,2.0,87,0.00,,,0.00,60.00,VWS V14.01,2013-06-26 12:13:00,
2013-06-26 07:18:00,72.0,67.9,29.63,NE,55,0.0,2.0,87,0.00,,,0.00,76.00,VWS V14.01,2013-06-26 12:18:00,
2013-06-26 07:23:00,72.0,67.9,29.64,NE,55,0.0,2.0,87,0.00,,,0.00,79.00,VWS V14.01,2013-06-26 12:23:00,
2013-06-26 07:28:00,72.1,68.0,29.64,NE,55,0.0,2.0,87,0.00,,,0.00,58.00,VWS V14.01,2013-06-26 12:28:00,
2013-06-26 07:33:00,72.1,68.0,29.64,South,174,4.0,5.0,87,0.00,,,0.00,51.00,VWS V14.01,2013-06-26 12:33:00,
2013-06-26 07:38:00,72.1,68.0,29.64,South,174,0.0,5.0,87,0.00,,,0.00,72.00,VWS V14.01,2013-06-26 12:38:00,
2013-06-26 07:43:00,72.1,68.0,29.64,South,174,0.0,5.0,87,0.00,,,0.00,81.00,VWS V14.01,2013-06-26 12:43:00,
2013-06-26 07:48:00,72.2,68.1,29.64,SSE,150,2.0,5.0,87,0.00,,,0.00,84.00,VWS V14.01,2013-06-26 12:48:00,
2013-06-26 07:53:00,72.2,68.1,29.63,SSE,150,1.0,5.0,87,0.00,,,0.00,98.00,VWS V14.01,2013-06-26 12:53:00,
2013-06-26 07:58:00,72.3,68.2,29.63,ESE,107,0.0,5.0,87,0.00,,,0.00,123.00,VWS V14.01,2013-06-26 12:58:00,
2013-06-26 08:03:00,72.4,68.3,29.63,ESE,107,0.0,0.0,87,0.00,,,0.00,100.00,VWS V14.01,2013-06-26 13:03:00,
2013-06-26 08:08:00,72.5,68.4,29.63,SSE,160,0.0,1.0,87,0.00,,,0.00,83.00,VWS V14.01,2013-06-26 13:08:00,
2013-06-26 08:13:00,72.6,68.5,29.63,SSE,160,0.0,1.0,87,0.00,,,0.00,83.00,VWS V14.01,2013-06-26 13:13:00,
2013-06-26 08:18:00,72.6,68.5,29.64,SSE,160,0.0,1.0,87,0.00,,,0.00,74.00,VWS V14.01,2013-06-26 13:18:00,
2013-06-26 08:23:00,72.7,68.6,29.64,South,178,0.0,4.0,87,0.00,,,0.00,84.00,VWS V14.01,2013-06-26 13:23:00,
2013-06-26 08:28:00,72.7,68.6,29.64,South,178,1.0,4.0,87,0.00,,,0.00,83.00,VWS V14.01,2013-06-26 13:28:00,
2013-06-26 08:33:00,72.7,68.6,29.63,SSE,153,0.0,2.0,87,0.00,,,0.00,81.00,VWS V14.01,2013-06-26 13:33:00,
2013-06-26 08:38:00,72.7,68.6,29.63,South,191,0.0,2.0,87,0.00,,,0.00,83.00,VWS V14.01,2013-06-26 13:38:00,
2013-06-26 08:43:00,72.8,68.7,29.63,South,191,0.0,2.0,87,0.00,,,0.00,70.00,VWS V14.01,2013-06-26 13:43:00,
2013-06-26 08:48:00,72.8,68.7,29.62,South,178,0.0,3.0,87,0.00,,,0.00,100.00,VWS V14.01,2013-06-26 13:48:00,
2013-06-26 08:53:00,72.9,68.8,29.62,South,178,0.0,3.0,87,0.00,,,0.00,144.00,VWS V14.01,2013-06-26 13:53:00,
2013-06-26 08:58:00,73.0,68.9,29.62,South,187,1.0,4.0,87,0.00,,,0.00,137.00,VWS V14.01,2013-06-26 13:58:00,
2013-06-26 09:03:00,73.1,69.0,29.62,SE,144,0.0,2.0,87,0.00,,,0.00,162.00,VWS V14.01,2013-06-26 14:03:00,
2013-06-26 09:08:00,73.2,69.1,29.62,SW,214,0.0,2.0,87,0.00,,,0.00,190.00,VWS V14.01,2013-06-26 14:08:00,
2013-06-26 09:13:00,73.3,69.2,29.62,SE,133,0.0,3.0,87,0.00,,,0.00,192.00,VWS V14.01,2013-06-26 14:13:00,
2013-06-26 09:18:00,73.4,69.3,29.62,ENE,63,0.0,3.0,87,0.00,,,0.00,227.00,VWS V14.01,2013-06-26 14:18:00,
2013-06-26 09:24:00,73.4,69.3,29.61,ENE,63,0.0,3.0,87,0.00,,,0.00,183.00,VWS V14.01,2013-06-26 14:24:00,
2013-06-26 09:29:00,73.5,69.4,29.62,WSW,243,0.0,3.0,87,0.00,,,0.00,195.00,VWS V14.01,2013-06-26 14:29:00,
2013-06-26 09:34:00,73.7,69.6,29.63,WSW,243,0.0,1.0,87,0.00,,,0.00,158.00,VWS V14.01,2013-06-26 14:34:00,
2013-06-26 09:39:00,73.7,69.9,29.63,ESE,108,0.0,2.0,88,0.00,,,0.00,156.00,VWS V14.01,2013-06-26 14:39:00,
2013-06-26 09:44:00,73.8,70.0,29.64,South,175,3.0,3.0,88,0.00,,,0.00,165.00,VWS V14.01,2013-06-26 14:44:00,
2013-06-26 09:49:00,73.9,70.1,29.63,South,188,1.0,4.0,88,0.00,,,0.00,114.00,VWS V14.01,2013-06-26 14:49:00,
2013-06-26 09:54:00,73.8,70.4,29.63,South,171,0.0,4.0,89,0.00,,,0.00,109.00,VWS V14.01,2013-06-26 14:54:00,
2013-06-26 09:59:00,73.9,70.5,29.63,South,190,0.0,4.0,89,0.00,,,0.00,120.00,VWS V14.01,2013-06-26 14:59:00,
2013-06-26 10:04:00,74.0,70.2,29.63,South,173,2.0,7.0,88,0.00,,,0.00,141.00,VWS V14.01,2013-06-26 15:04:00,
2013-06-26 10:09:00,74.0,70.6,29.63,South,182,3.0,7.0,89,0.00,,,0.00,172.00,VWS V14.01,2013-06-26 15:09:00,
2013-06-26 10:14:00,74.1,70.7,29.63,South,175,0.0,7.0,89,0.00,,,0.00,146.00,VWS V14.01,2013-06-26 15:14:00,
2013-06-26 10:19:00,74.3,70.8,29.63,SSE,149,0.0,7.0,89,0.00,,,0.00,93.00,VWS V14.01,2013-06-26 15:19:00,
2013-06-26 10:24:00,74.3,70.8,29.63,SSW,196,2.0,7.0,89,0.00,,,0.00,88.00,VWS V14.01,2013-06-26 15:24:00,
2013-06-26 10:29:00,74.2,71.1,29.63,South,185,5.0,7.0,90,0.00,,,0.00,116.00,VWS V14.01,2013-06-26 15:29:00,
2013-06-26 10:34:00,74.2,71.1,29.63,South,184,1.0,7.0,90,0.00,,,0.00,127.00,VWS V14.01,2013-06-26 15:34:00,
2013-06-26 10:39:00,74.2,71.1,29.63,South,187,2.0,7.0,90,0.00,,,0.00,130.00,VWS V14.01,2013-06-26 15:39:00,
2013-06-26 10:44:00,74.2,71.1,29.63,SSW,198,1.0,7.0,90,0.00,,,0.00,165.00,VWS V14.01,2013-06-26 15:44:00,
2013-06-26 10:49:00,74.1,71.0,29.63,SSW,205,0.0,7.0,90,0.00,,,0.00,162.00,VWS V14.01,2013-06-26 15:49:00,
2013-06-26 10:54:00,74.2,71.1,29.63,SE,140,0.0,7.0,90,0.00,,,0.00,199.00,VWS V14.01,2013-06-26 15:54:00,
2013-06-26 10:59:00,74.4,71.3,29.64,SSW,205,2.0,7.0,90,0.00,,,0.00,206.00,VWS V14.01,2013-06-26 15:59:00,
2013-06-26 11:04:00,74.6,71.5,29.64,South,180,1.0,7.0,90,0.00,,,0.00,199.00,VWS V14.01,2013-06-26 16:04:00,
2013-06-26 11:09:00,74.5,71.4,29.64,SSW,193,7.0,8.0,90,0.00,,,0.00,241.00,VWS V14.01,2013-06-26 16:09:00,
2013-06-26 11:14:00,74.7,71.6,29.64,South,191,1.0,8.0,90,0.00,,,0.00,178.00,VWS V14.01,2013-06-26 16:14:00,
2013-06-26 11:19:00,74.9,71.8,29.64,SSW,195,3.0,8.0,90,0.00,,,0.00,174.00,VWS V14.01,2013-06-26 16:19:00,
2013-06-26 11:24:00,74.9,71.8,29.64,SSW,200,5.0,8.0,90,0.00,,,0.00,172.00,VWS V14.01,2013-06-26 16:24:00,
2013-06-26 11:29:00,75.0,71.9,29.65,SSE,168,1.0,8.0,90,0.00,,,0.00,171.00,VWS V14.01,2013-06-26 16:29:00,
2013-06-26 11:34:00,75.1,72.0,29.65,South,184,5.0,7.0,90,0.00,,,0.00,148.00,VWS V14.01,2013-06-26 16:34:00,
2013-06-26 11:39:00,75.2,72.1,29.64,SSW,201,0.0,7.0,90,0.00,,,0.00,297.00,VWS V14.01,2013-06-26 16:39:00,
2013-06-26 11:44:00,75.4,72.3,29.64,South,182,0.0,7.0,90,0.00,,,0.00,269.00,VWS V14.01,2013-06-26 16:44:00,
2013-06-26 11:49:00,75.7,72.6,29.64,South,184,0.0,7.0,90,0.00,,,0.00,255.00,VWS V14.01,2013-06-26 16:49:00,
2013-06-26 11:54:00,76.0,72.9,29.64,South,184,0.0,7.0,90,0.00,,,0.00,464.00,VWS V14.01,2013-06-26 16:54:00,
2013-06-26 11:59:00,76.5,73.3,29.64,South,186,0.0,0.0,90,0.00,,,0.00,313.00,VWS V14.01,2013-06-26 16:59:00,
2013-06-26 12:04:00,76.7,72.9,29.64,SSW,192,5.0,7.0,88,0.00,,OVC014,0.00,294.00,VWS V14.01,2013-06-26 17:04:00,
2013-06-26 12:09:00,76.7,72.9,29.64,South,184,0.0,7.0,88,0.00,,OVC014,0.00,236.00,VWS V14.01,2013-06-26 17:09:00,
2013-06-26 12:14:00,76.8,73.0,29.64,South,178,0.0,8.0,88,0.00,,OVC014,0.00,241.00,VWS V14.01,2013-06-26 17:14:00,
2013-06-26 12:19:00,76.8,73.0,29.64,ESE,118,1.0,8.0,88,0.00,,OVC014,0.00,218.00,VWS V14.01,2013-06-26 17:19:00,
2013-06-26 12:24:00,76.7,72.9,29.64,SSE,161,0.0,8.0,88,0.00,,OVC014,0.00,232.00,VWS V14.01,2013-06-26 17:24:00,
2013-06-26 12:29:00,76.7,72.9,29.64,SSE,161,1.0,1.0,88,0.00,,OVC014,0.00,264.00,VWS V14.01,2013-06-26 17:29:00,
2013-06-26 12:34:00,76.8,73.0,29.64,SSW,198,1.0,4.0,88,0.00,,OVC014,0.00,301.00,VWS V14.01,2013-06-26 17:34:00,
2013-06-26 12:39:00,77.1,73.3,29.63,South,188,0.0,4.0,88,0.00,,SCT021,0.00,504.00,VWS V14.01,2013-06-26 17:39:00,
2013-06-26 12:44:00,77.8,73.6,29.63,South,190,0.0,4.0,87,0.00,,SCT021,0.00,568.00,VWS V14.01,2013-06-26 17:44:00,
2013-06-26 12:49:00,78.7,74.2,29.62,South,175,2.0,7.0,86,0.00,,SCT021,0.00,788.00,VWS V14.01,2013-06-26 17:49:00,
2013-06-26 12:54:00,79.2,74.3,29.62,SSW,197,4.0,8.0,85,0.00,,SCT021,0.00,338.00,VWS V14.01,2013-06-26 17:54:00,
2013-06-26 12:59:00,79.5,74.2,29.61,SSE,150,0.0,2.0,84,0.00,,SCT021,0.00,417.00,VWS V14.01,2013-06-26 17:59:00,
2013-06-26 13:04:00,79.7,74.1,29.60,SSE,154,0.0,4.0,83,0.00,,FEW019,0.00,329.00,VWS V14.01,2013-06-26 18:04:00,
2013-06-26 13:09:00,79.8,74.2,29.60,SSW,211,0.0,7.0,83,0.00,,FEW019,0.00,376.00,VWS V14.01,2013-06-26 18:09:00,
2013-06-26 13:14:00,80.4,74.8,29.61,SSW,211,2.0,7.0,83,0.00,,FEW019,0.00,1053.00,VWS V14.01,2013-06-26 18:14:00,
2013-06-26 13:19:00,80.8,74.4,29.61,SSE,150,1.0,7.0,81,0.00,,FEW019,0.00,355.00,VWS V14.01,2013-06-26 18:19:00,
2013-06-26 13:24:00,80.9,74.9,29.63,SW,232,4.0,7.0,82,0.00,,FEW019,0.00,338.00,VWS V14.01,2013-06-26 18:24:00,
2013-06-26 13:29:00,81.3,74.9,29.63,SSW,202,6.0,7.0,81,0.00,,FEW019,0.00,455.00,VWS V14.01,2013-06-26 18:29:00,
2013-06-26 13:34:00,81.6,75.2,29.63,South,170,0.0,7.0,81,0.00,,FEW019,0.00,380.00,VWS V14.01,2013-06-26 18:34:00,
2013-06-26 13:39:00,81.5,74.4,29.62,East,98,0.0,7.0,79,0.00,,FEW019,0.00,452.00,VWS V14.01,2013-06-26 18:39:00,
2013-06-26 13:44:00,81.4,74.3,29.62,SSW,196,0.0,7.0,79,0.00,,FEW019,0.00,355.00,VWS V14.01,2013-06-26 18:44:00,
2013-06-26 13:49:00,81.4,74.3,29.62,SSW,193,3.0,7.0,79,0.00,,FEW019,0.00,424.00,VWS V14.01,2013-06-26 18:49:00,
2013-06-26 13:54:00,81.6,74.8,29.62,SE,136,0.0,7.0,80,0.00,,FEW019,0.00,301.00,VWS V14.01,2013-06-26 18:54:00,
2013-06-26 13:59:00,81.6,74.5,29.61,South,189,0.0,0.0,79,0.00,,FEW019,0.00,244.00,VWS V14.01,2013-06-26 18:59:00,
2013-06-26 14:04:00,81.6,74.1,29.61,SSW,194,3.0,7.0,78,0.00,,BKN036,0.00,206.00,VWS V14.01,2013-06-26 19:04:00,
2013-06-26 14:09:00,81.3,73.8,29.63,SSW,196,6.0,7.0,78,0.00,,BKN036,0.00,183.00,VWS V14.01,2013-06-26 19:09:00,
2013-06-26 14:14:00,81.0,73.1,29.62,South,180,0.0,7.0,77,0.00,,BKN036,0.00,142.00,VWS V14.01,2013-06-26 19:14:00,
2013-06-26 14:19:00,80.8,73.3,29.62,SSW,192,4.0,7.0,78,0.00,,BKN036,0.00,88.00,VWS V14.01,2013-06-26 19:19:00,
2013-06-26 14:24:00,80.6,73.5,29.62,SSE,162,0.0,7.0,79,0.00,,BKN036,0.00,84.00,VWS V14.01,2013-06-26 19:24:00,
2013-06-26 14:29:00,80.4,73.7,29.62,SSW,200,0.0,1.0,80,0.00,,BKN036,0.00,62.00,VWS V14.01,2013-06-26 19:29:00,
2013-06-26 14:34:00,80.2,73.1,29.63,SSW,200,2.0,3.0,79,0.00,,BKN036,0.00,46.00,VWS V14.01,2013-06-26 19:34:00,
2013-06-26 14:39:00,79.9,73.2,29.63,SW,222,2.0,4.0,80,0.00,,BKN036,0.00,30.00,VWS V14.01,2013-06-26 19:39:00,
2013-06-26 14:44:00,79.7,73.0,29.62,SSW,207,0.0,4.0,80,0.00,,BKN036,0.00,23.00,VWS V14.01,2013-06-26 19:44:00,
2013-06-26 14:49:00,79.5,73.2,29.62,SSW,207,0.0,4.0,81,0.01,,BKN036,0.01,21.00,VWS V14.01,2013-06-26 19:49:00,
2013-06-26 14:54:00,78.9,73.3,29.62,SSW,197,2.0,4.0,83,0.01,,BKN036,0.01,19.00,VWS V14.01,2013-06-26 19:54:00,
2013-06-26 14:59:00,78.4,73.2,29.62,SSW,197,0.0,0.0,84,0.01,,BKN036,0.01,18.00,VWS V14.01,2013-06-26 19:59:00,
2013-06-26 15:04:00,77.9,73.4,29.62,SSW,197,0.0,0.0,86,0.01,,BKN065,0.01,16.00,VWS V14.01,2013-06-26 20:04:00,
2013-06-26 15:09:00,77.3,72.8,29.62,SSW,197,0.0,0.0,86,0.01,,BKN065,0.01,16.00,VWS V14.01,2013-06-26 20:09:00,
2013-06-26 15:14:00,76.7,72.5,29.61,SSW,197,0.0,0.0,87,0.02,,BKN065,0.02,14.00,VWS V14.01,2013-06-26 20:14:00,
2013-06-26 15:19:00,76.3,72.5,29.60,SSW,197,0.0,0.0,88,0.02,,BKN065,0.02,18.00,VWS V14.01,2013-06-26 20:19:00,
2013-06-26 15:24:00,75.9,72.4,29.61,SSW,197,0.0,2.0,89,0.02,,BKN065,0.02,26.00,VWS V14.01,2013-06-26 20:24:00,
2013-06-26 15:29:00,75.4,71.9,29.61,SSW,197,0.0,0.0,89,0.02,,BKN065,0.02,35.00,VWS V14.01,2013-06-26 20:29:00,
2013-06-26 15:34:00,75.2,71.7,29.62,SSW,197,0.0,0.0,89,0.02,,BKN065,0.02,42.00,VWS V14.01,2013-06-26 20:34:00,
2013-06-26 15:39:00,75.4,72.3,29.62,SSW,197,0.0,0.0,90,0.02,,,0.02,46.00,VWS V14.01,2013-06-26 20:39:00,
2013-06-26 15:44:00,75.5,72.0,29.63,SSW,197,0.0,1.0,89,0.02,,,0.02,46.00,VWS V14.01,2013-06-26 20:44:00,
2013-06-26 15:49:00,75.6,72.5,29.63,SSW,197,0.0,1.0,90,0.03,,,0.03,49.00,VWS V14.01,2013-06-26 20:49:00,
2013-06-26 15:54:00,75.5,72.0,29.63,SSW,197,0.0,1.0,89,0.03,,,0.03,62.00,VWS V14.01,2013-06-26 20:54:00,
2013-06-26 15:59:00,75.5,72.0,29.64,NW,306,1.0,1.0,89,0.02,,OVC035,0.03,56.00,VWS V14.01,2013-06-26 20:59:00,
2013-06-26 16:04:00,75.5,72.0,29.64,NW,306,0.0,1.0,89,0.02,,OVC035,0.03,47.00,VWS V14.01,2013-06-26 21:04:00,
2013-06-26 16:09:00,75.6,72.1,29.63,NW,306,0.0,1.0,89,0.06,,OVC035,0.07,40.00,VWS V14.01,2013-06-26 21:09:00,
2013-06-26 16:14:00,75.6,72.1,29.64,WNW,293,0.0,3.0,89,0.08,,OVC035,0.09,37.00,VWS V14.01,2013-06-26 21:14:00,
2013-06-26 16:19:00,75.6,72.1,29.63,WNW,293,1.0,3.0,89,0.08,,,0.09,26.00,VWS V14.01,2013-06-26 21:19:00,
2013-06-26 16:24:00,74.9,71.8,29.65,SW,220,17.0,17.0,90,0.09,,,0.10,0.00,VWS V14.01,2013-06-26 21:24:00,
2013-06-26 16:29:00,72.9,69.5,29.65,SSW,200,15.0,15.0,89,0.17,,,0.19,7.00,VWS V14.01,2013-06-26 21:29:00,
2013-06-26 16:34:00,70.7,67.0,29.65,NW,309,4.0,21.0,88,0.40,,,0.42,14.00,VWS V14.01,2013-06-26 21:34:00,
2013-06-26 16:39:00,69.6,65.9,29.65,SW,225,4.0,21.0,88,0.53,,,0.55,40.00,VWS V14.01,2013-06-26 21:39:00,
2013-06-26 16:44:00,69.3,66.2,29.64,SW,226,0.0,21.0,90,0.63,,,0.65,76.00,VWS V14.01,2013-06-26 21:44:00,
2013-06-26 16:49:00,69.1,66.1,29.65,SW,226,0.0,21.0,90,0.63,,,0.65,88.00,VWS V14.01,2013-06-26 21:49:00,
2013-06-26 16:54:00,69.1,66.1,29.65,SW,226,0.0,21.0,90,0.63,,,0.65,105.00,VWS V14.01,2013-06-26 21:54:00,
2013-06-26 16:59:00,69.0,65.9,29.65,SW,227,6.0,6.0,90,0.62,,BKN046,0.65,132.00,VWS V14.01,2013-06-26 21:59:00,
2013-06-26 17:04:00,69.2,66.2,29.65,SW,227,1.0,6.0,90,0.62,,BKN046,0.65,193.00,VWS V14.01,2013-06-26 22:04:00,
2013-06-26 17:09:00,69.7,66.3,29.65,SSW,194,4.0,6.0,89,0.62,,BKN046,0.65,473.00,VWS V14.01,2013-06-26 22:09:00,
2013-06-26 17:14:00,69.8,66.7,29.65,SSE,152,0.0,7.0,90,0.62,,BKN046,0.65,278.00,VWS V14.01,2013-06-26 22:14:00,
2013-06-26 17:19:00,70.4,67.0,29.64,South,180,0.0,7.0,89,0.62,,BKN046,0.65,422.00,VWS V14.01,2013-06-26 22:19:00,
2013-06-26 17:24:00,70.6,67.5,29.63,South,180,1.0,7.0,90,0.62,,BKN046,0.65,272.00,VWS V14.01,2013-06-26 22:24:00,
2013-06-26 17:30:00,71.2,67.8,29.63,South,183,0.0,1.0,89,0.47,,BKN046,0.65,652.00,VWS V14.01,2013-06-26 22:30:00,
2013-06-26 17:35:00,71.7,68.6,29.62,South,188,5.0,7.0,90,0.47,,BKN046,0.65,589.00,VWS V14.01,2013-06-26 22:35:00,
2013-06-26 17:40:00,72.4,69.3,29.62,South,184,0.0,7.0,90,0.47,,FEW030,0.65,550.00,VWS V14.01,2013-06-26 22:40:00,
2013-06-26 17:45:00,72.8,69.4,29.62,South,182,0.0,7.0,89,0.47,,FEW030,0.65,519.00,VWS V14.01,2013-06-26 22:45:00,
2013-06-26 17:50:00,73.0,69.2,29.62,SSW,192,0.0,7.0,88,0.47,,FEW030,0.65,492.00,VWS V14.01,2013-06-26 22:50:00,
2013-06-26 17:55:00,73.6,70.2,29.62,SSW,207,0.0,7.0,89,0.47,,FEW030,0.65,468.00,VWS V14.01,2013-06-26 22:55:00,
2013-06-26 18:00:00,74.1,70.0,29.62,SSW,199,3.0,4.0,87,0.00,,CLR,0.65,446.00,VWS V14.01,2013-06-26 23:00:00,
2013-06-26 18:05:00,74.6,70.5,29.62,SSW,199,2.0,4.0,87,0.00,,CLR,0.65,436.00,VWS V14.01,2013-06-26 23:05:00,
2013-06-26 18:10:00,74.8,70.3,29.62,SSW,198,0.0,4.0,86,0.00,,CLR,0.65,431.00,VWS V14.01,2013-06-26 23:10:00,
2013-06-26 18:15:00,75.0,70.5,29.62,SE,140,0.0,5.0,86,0.00,,CLR,0.65,424.00,VWS V14.01,2013-06-26 23:15:00,
2013-06-26 18:20:00,74.9,69.7,29.62,SE,136,0.0,5.0,84,0.00,,CLR,0.65,425.00,VWS V14.01,2013-06-26 23:20:00,
2013-06-26 18:25:00,75.1,70.6,29.62,SE,136,0.0,5.0,86,0.00,,CLR,0.65,448.00,VWS V14.01,2013-06-26 23:25:00,
2013-06-26 18:30:00,75.3,70.1,29.62,SE,136,0.0,0.0,84,0.00,,CLR,0.65,434.00,VWS V14.01,2013-06-26 23:30:00,
2013-06-26 18:35:00,75.6,70.8,29.62,SSW,199,5.0,5.0,85,0.00,,CLR,0.65,396.00,VWS V14.01,2013-06-26 23:35:00,
2013-06-26 18:40:00,75.8,70.6,29.62,South,186,4.0,6.0,84,0.00,,CLR,0.65,371.00,VWS V14.01,2013-06-26 23:40:00,
2013-06-26 18:45:00,75.9,70.7,29.62,SSW,196,2.0,6.0,84,0.00,,CLR,0.65,91.00,VWS V14.01,2013-06-26 23:45:00,
2013-06-26 18:50:00,75.5,70.3,29.62,SSW,197,1.0,6.0,84,0.00,,CLR,0.65,84.00,VWS V14.01,2013-06-26 23:50:00,
2013-06-26 18:55:00,75.0,69.8,29.62,SSW,197,3.0,6.0,84,0.00,,CLR,0.65,74.00,VWS V14.01,2013-06-26 23:55:00,
2013-06-26 19:00:00,74.7,70.2,29.62,SSW,197,3.0,3.0,86,0.00,,CLR,0.65,60.00,VWS V14.01,2013-06-27 00:00:00,
2013-06-26 19:05:00,74.5,70.0,29.62,SSW,194,2.0,4.0,86,0.00,,CLR,0.65,47.00,VWS V14.01,2013-06-27 00:05:00,
2013-06-26 19:10:00,74.3,70.2,29.62,South,185,2.0,4.0,87,0.00,,CLR,0.65,44.00,VWS V14.01,2013-06-27 00:10:00,
2013-06-26 19:15:00,74.2,70.4,29.62,South,185,0.0,4.0,88,0.00,,CLR,0.65,40.00,VWS V14.01,2013-06-27 00:15:00,
2013-06-26 19:20:00,74.1,70.3,29.62,South,185,1.0,4.0,88,0.00,,CLR,0.65,51.00,VWS V14.01,2013-06-27 00:20:00,
2013-06-26 19:25:00,74.0,70.2,29.62,South,185,0.0,4.0,88,0.00,,CLR,0.65,76.00,VWS V14.01,2013-06-27 00:25:00,
2013-06-26 19:30:00,74.1,70.7,29.62,South,185,0.0,0.0,89,0.00,,CLR,0.65,211.00,VWS V14.01,2013-06-27 00:30:00,
2013-06-26 19:35:00,74.3,70.8,29.62,South,186,0.0,0.0,89,0.00,,CLR,0.65,113.00,VWS V14.01,2013-06-27 00:35:00,
2013-06-26 19:40:00,74.3,70.8,29.62,South,186,0.0,0.0,89,0.00,,CLR,0.65,178.00,VWS V14.01,2013-06-27 00:40:00,
2013-06-26 19:45:00,74.2,70.8,29.63,South,186,0.0,0.0,89,0.00,,CLR,0.65,56.00,VWS V14.01,2013-06-27 00:45:00,
2013-06-26 19:50:00,74.2,70.8,29.63,South,186,0.0,0.0,89,0.00,,CLR,0.65,134.00,VWS V14.01,2013-06-27 00:50:00,
2013-06-26 19:55:00,74.5,71.1,29.62,South,188,1.0,2.0,89,0.00,,CLR,0.65,44.00,VWS V14.01,2013-06-27 00:55:00,
2013-06-26 20:00:00,74.6,70.8,29.63,South,188,1.0,1.0,88,0.00,,CLR,0.65,90.00,VWS V14.01,2013-06-27 01:00:00,
2013-06-26 20:05:00,74.8,71.0,29.63,SSW,198,0.0,3.0,88,0.00,,CLR,0.65,77.00,VWS V14.01,2013-06-27 01:05:00,
2013-06-26 20:10:00,75.0,71.2,29.63,SSW,198,1.0,3.0,88,0.00,,CLR,0.65,21.00,VWS V14.01,2013-06-27 01:10:00,
2013-06-26 20:15:00,74.8,71.0,29.63,SSW,198,0.0,3.0,88,0.00,,CLR,0.65,18.00,VWS V14.01,2013-06-27 01:15:00,
2013-06-26 20:20:00,74.5,70.7,29.64,SSW,198,0.0,3.0,88,0.00,,CLR,0.65,16.00,VWS V14.01,2013-06-27 01:20:00,
2013-06-26 20:25:00,74.4,70.6,29.64,SSW,198,0.0,3.0,88,0.00,,CLR,0.65,18.00,VWS V14.01,2013-06-27 01:25:00,
2013-06-26 20:30:00,74.3,70.8,29.64,SSW,198,0.0,0.0,89,0.00,,CLR,0.65,23.00,VWS V14.01,2013-06-27 01:30:00,
2013-06-26 20:35:00,74.1,70.7,29.64,SSW,197,0.0,0.0,89,0.00,,CLR,0.65,32.00,VWS V14.01,2013-06-27 01:35:00,
2013-06-26 20:40:00,73.8,70.4,29.64,SSW,197,0.0,0.0,89,0.00,,CLR,0.65,9.00,VWS V14.01,2013-06-27 01:40:00,
2013-06-26 20:45:00,73.6,70.5,29.65,SSW,197,0.0,0.0,90,0.00,,CLR,0.65,9.00,VWS V14.01,2013-06-27 01:45:00,
2013-06-26 20:50:00,73.4,70.3,29.65,SSW,197,0.0,2.0,90,0.00,,CLR,0.65,0.00,VWS V14.01,2013-06-27 01:50:00,
2013-06-26 20:55:00,73.4,70.3,29.64,SSW,197,1.0,2.0,90,0.00,,CLR,0.65,0.00,VWS V14.01,2013-06-27 01:55:00,
2013-06-26 21:00:00,73.4,70.3,29.65,SSW,197,1.0,2.0,90,0.00,,RA,0.65,0.00,VWS V14.01,2013-06-27 02:00:00,
2013-06-26 21:05:00,73.4,70.3,29.65,SSW,197,0.0,2.0,90,0.00,,RA,0.65,0.00,VWS V14.01,2013-06-27 02:05:00,
2013-06-26 21:10:00,73.4,70.3,29.65,SSW,197,0.0,2.0,90,0.00,,RA,0.65,0.00,VWS V14.01,2013-06-27 02:10:00,
2013-06-26 21:15:00,73.4,70.3,29.65,SSW,197,0.0,2.0,90,0.00,,RA,0.65,0.00,VWS V14.01,2013-06-27 02:15:00,
2013-06-26 21:20:00,73.4,70.3,29.65,SSW,197,0.0,2.0,90,0.00,,-RA,0.65,0.00,VWS V14.01,2013-06-27 02:20:00,
2013-06-26 21:25:00,72.8,69.7,29.66,SSW,197,0.0,2.0,90,0.00,,-RA,0.65,0.00,VWS V14.01,2013-06-27 02:25:00,
2013-06-26 21:30:00,72.5,69.4,29.66,SSW,197,0.0,0.0,90,0.00,,-RA,0.65,0.00,VWS V14.01,2013-06-27 02:30:00,
2013-06-26 21:35:00,72.5,69.4,29.66,SSW,197,0.0,1.0,90,0.00,,-RA,0.65,0.00,VWS V14.01,2013-06-27 02:35:00,
2013-06-26 21:40:00,72.6,69.5,29.66,SSW,197,0.0,1.0,90,0.00,,-RA,0.65,0.00,VWS V14.01,2013-06-27 02:40:00,
2013-06-26 21:45:00,72.8,69.4,29.66,SSW,197,0.0,2.0,89,0.00,,-RA,0.65,0.00,VWS V14.01,2013-06-27 02:45:00,
2013-06-26 21:50:00,72.9,69.5,29.66,SSW,197,0.0,2.0,89,0.00,,-RA,0.65,0.00,VWS V14.01,2013-06-27 02:50:00,
2013-06-26 21:55:00,72.9,69.5,29.67,SSW,197,0.0,2.0,89,0.00,,-RA,0.65,0.00,VWS V14.01,2013-06-27 02:55:00,
2013-06-26 22:00:00,72.8,69.4,29.67,SSW,197,0.0,0.0,89,0.00,,,0.65,0.00,VWS V14.01,2013-06-27 03:00:00,
2013-06-26 22:05:00,72.8,69.4,29.67,SSW,197,0.0,0.0,89,0.00,,,0.65,0.00,VWS V14.01,2013-06-27 03:05:00,
2013-06-26 22:10:00,72.6,69.2,29.67,SSW,197,0.0,0.0,89,0.00,,,0.65,0.00,VWS V14.01,2013-06-27 03:10:00,
2013-06-26 22:15:00,72.4,69.0,29.67,SSW,197,0.0,0.0,89,0.00,,,0.65,0.00,VWS V14.01,2013-06-27 03:15:00,
2013-06-26 22:20:00,72.0,68.9,29.67,SSW,197,0.0,0.0,90,0.00,,,0.65,0.00,VWS V14.01,2013-06-27 03:20:00,
2013-06-26 22:25:00,71.6,68.5,29.68,SSW,197,0.0,0.0,90,0.00,,,0.65,0.00,VWS V14.01,2013-06-27 03:25:00,
2013-06-26 22:30:00,71.2,68.1,29.67,SSW,197,0.0,0.0,90,0.00,,,0.65,0.00,VWS V14.01,2013-06-27 03:30:00,
2013-06-26 22:36:00,71.3,67.9,29.67,SSW,197,0.0,0.0,89,0.00,,,0.65,0.00,VWS V14.01,2013-06-27 03:36:00,
2013-06-26 22:41:00,71.2,67.8,29.68,SSW,197,0.0,0.0,89,0.00,,,0.65,0.00,VWS V14.01,2013-06-27 03:41:00,
2013-06-26 22:46:00,70.8,67.7,29.68,SSW,197,0.0,1.0,90,0.00,,,0.65,0.00,VWS V14.01,2013-06-27 03:46:00,
2013-06-26 22:51:00,70.7,67.6,29.68,SSW,197,0.0,1.0,90,0.00,,,0.65,0.00,VWS V14.01,2013-06-27 03:51:00,
2013-06-26 22:56:00,70.6,67.5,29.68,SSW,197,0.0,1.0,90,0.00,,,0.65,0.00,VWS V14.01,2013-06-27 03:56:00,
2013-06-26 23:01:00,70.2,67.1,29.68,SSW,197,0.0,0.0,90,0.00,,,0.65,0.00,VWS V14.01,2013-06-27 04:01:00,
2013-06-26 23:02:00,70.2,67.1,29.68,SSW,197,0.0,0.0,90,0.00,,,0.65,0.00,VWS V14.01,2013-06-27 04:02:00,
2013-06-26 23:07:00,70.1,66.7,29.68,SSW,197,0.0,1.0,89,0.00,,,0.65,0.00,VWS V14.01,2013-06-27 04:07:00,
2013-06-26 23:12:00,70.5,66.8,29.69,SSW,197,0.0,1.0,88,0.00,,,0.65,0.00,VWS V14.01,2013-06-27 04:12:00,
2013-06-26 23:17:00,70.8,66.7,29.69,SSW,197,1.0,2.0,87,0.00,,,0.65,0.00,VWS V14.01,2013-06-27 04:17:00,
2013-06-26 23:22:00,71.2,67.1,29.69,SSW,197,0.0,2.0,87,0.00,,,0.65,0.00,VWS V14.01,2013-06-27 04:22:00,
2013-06-26 23:27:00,71.3,67.2,29.69,SSW,197,1.0,2.0,87,0.00,,,0.65,0.00,VWS V14.01,2013-06-27 04:27:00,
2013-06-26 23:32:00,71.5,67.4,29.69,West,275,1.0,3.0,87,0.00,,,0.65,0.00,VWS V14.01,2013-06-27 04:32:00,
2013-06-26 23:37:00,71.6,67.9,29.69,West,275,2.0,3.0,88,0.00,,,0.65,0.00,VWS V14.01,2013-06-27 04:37:00,
2013-06-26 23:42:00,71.6,67.9,29.69,NW,318,3.0,5.0,88,0.00,,,0.65,0.00,VWS V14.01,2013-06-27 04:42:00,
2013-06-26 23:47:00,71.5,68.1,29.69,NW,318,4.0,5.0,89,0.00,,,0.65,0.00,VWS V14.01,2013-06-27 04:47:00,
2013-06-26 23:52:00,71.3,67.9,29.69,NW,317,2.0,5.0,89,0.00,,,0.65,0.00,VWS V14.01,2013-06-27 04:52:00,
2013-06-26 23:57:00,71.0,67.6,29.69,NW,317,0.0,5.0,89,0.00,,,0.65,0.00,VWS V14.01,2013-06-27 04:57:00,